Hudson, OH (44236)

1:03 PM EST on December 03, 2016 (GMT -0500)
Western Reserve Academy | | Change Station

Elev 1125 ft 41.25 °N, 81.44 °W | Updated 4 seconds ago

Overcast
Overcast
37.8 °F
Feels Like 38 °F
N
0.0
Wind Variable Wind from NNW

Today
High -- | Low -- °F
--% Chance of Precip.
Yesterday
High -- | Low -- °F
Precip. -- in
Pressure 30.24 in
Visibility 10.0 miles
Clouds Overcast 1100 ft
Windchill 38 °F
Dew Point 33 °F
Humidity 82%
Rainfall 0.00 in
Snow Depth Not available.
7:34 AM 4:56 PM
Waxing Crescent, 16% visible
METAR KPOV 031758Z AUTO 26004KT 10SM -RA OVC011 02/00 A3024 RMK AO2 T00160000
Pressure 30.24 in
Visibility 10.0 miles
Clouds Overcast 1100 ft
Windchill 38 °F
Dew Point 33 °F
Humidity 82%
Rainfall 0.00 in
Snow Depth Not available.
7:34 AM 4:56 PM
Waxing Crescent, 16% visible
METAR KPOV 031758Z AUTO 26004KT 10SM -RA OVC011 02/00 A3024 RMK AO2 T00160000

10-Day Weather Forecast

Almanac

Astronomy

Dec. 03, 2016 Rise Set
Actual Time
Civil Twilight
Nautical Twilight
Astronomical Twilight
Moon
Length of Visible Light
Length of Day
Tomorrow will be .
, % of the Moon is Illuminated

Today's Extremes

State Highs State Lows

Community

WunderPhotos

Upload Photos

1,955,455 photos uploaded!

WunderBlog® & News

Nearby

Air Quality

  Air Quality AQ Index Pollutant
Not available.

Snow Depth

Station Depth Elevation

Earthquake Activity

City Distance Mag. Time & Date
Minimum magnitude displayed is 2.5.

Coastal Water Temperatures

Place Temperature

Stations

Nearby Weather Stations

Station Location Temp. Windchill Dew Point Humidity Wind Precip. Elev Updated Type
                   

Watches & Warnings

There are currently no watches in effect.